Tiempo atmosférico en la estación meteorológica de Almansa, Albacete (715 m.)



Fecha
DESCASC
Temp. máxima en grados centígrados (hora)
DESCASC
Temp. mínima en grados centígrados (hora)
DESCASC
Temp. media en grados centígrados
DESCASC
Racha de viento máxima en m/sg (hora)
DESCASC
Velocidad máxima media en intervalos de 10 minutos(hora)
DESCASC
Precipitaciones diarias en mm
DESCASC
Precipitaciones de 00:00 a 06:00 en mm
DESCASC
Precipitaciones de 06:00 a 12:00 en mm
DESCASC
Precipitaciones de 12:00 a 18:00 en mm
DESCASC
Precipitaciones de 18:00 a 24:00 en mm
DESCASC
17-08-2018 29.4 (15:10) 16.7 (05:40) 23.1 8.61 (15:30) 3.61 (15:30) 0.6 0 0 0 0.6
16-08-2018 25.7 (18:40) 19.5 (05:40) 22.6 5.28 (19:20) 2.22 (17:00) 0 0 0 0 0
15-08-2018 31 (16:20) 18.9 (08:00) 24.9 9.44 (17:20) 3.33 (17:20) 0 0 0 0 0
14-08-2018 32.1 (16:10) 16.5 (07:10) 24.3 7.78 (17:30) 3.89 (17:00) 0 0 0 0 0
13-08-2018 35.1 (17:00) 18.4 (07:30) 26.7 6.94 (18:00) 3.06 (14:20) 2.2 2.2 0 0 0
12-08-2018 34.8 (16:00) 15.8 (00:00) 25.3 9.17 (17:30) 3.61 (17:10) 0 0 0 0 0
11-08-2018 31.6 (16:40) 19.8 (00:00) 25.7 8.61 (17:30) 3.61 (17:30) 0 0 0 0 0
10-08-2018 28.8 (16:00) 18.5 (00:00) 23.6 9.72 (17:50) 3.89 (17:50) 1.2 0.6 0 0 0.6
09-08-2018 34.5 (17:20) 16.2 (00:00) 25.4 8.89 (21:20) 3.89 (16:40) 4.6 0 0 0 4.6
08-08-2018 34.5 (15:30) 16.9 (00:00) 25.7 18.06 (18:50) 8.33 (18:50) 1.2 0 0 0 1.2
07-08-2018 34.8 (16:20) 16.3 (00:00) 25.5 8.33 (16:40) 3.61 (16:40) 0 0 0 0 0
06-08-2018 35.9 (15:10) 18 (00:00) 27 10.56 (17:00) 4.72 (17:00) 2.2 2.2 0 0 0
05-08-2018 35.8 (15:20) 16.6 (00:00) 26.2 8.61 (17:00) 3.33 (11:40) 2.4 0 0 2.4 0
04-08-2018 37 (16:10) 16 (07:30) 26.5 7.5 (17:30) 3.89 (18:00) 0 0 0 0 0
03-08-2018 38.5 (15:30) 17.3 (00:00) 27.9 9.17 (16:20) 3.89 (16:10) 0 0 0 0 0
02-08-2018 37 (16:50) 14.7 (00:00) 25.8 7.5 (18:20) 3.33 (15:20) 0 0 0 0 0
01-08-2018 36 (16:20) 13.6 (07:10) 24.8 8.61 (18:30) 3.33 (12:30) 0 0 0 0 0
31-07-2018 36.5 (15:10) 15.5 (00:00) 26 9.44 (16:30) 3.61 (16:20) 0 0 0 0 0
30-07-2018 36.6 (16:10) 19.2 (00:00) 27.9 7.78 (19:00) 3.33 (18:50) 0 0 0 0 0
29-07-2018 35.6 (16:50) 16.6 (00:00) 26.1 7.78 (16:30) 3.61 (16:30) 0 0 0 0 0
28-07-2018 36.8 (17:00) 17.1 (00:00) 26.9 6.94 (17:40) 3.33 (20:50) 0 0 0 0 0
27-07-2018 36.4 (16:00) 15.2 (00:00) 25.8 8.61 (17:40) 3.89 (17:40) 0 0 0 0 0
26-07-2018 36.1 (16:30) 19 (00:00) 27.5 8.33 (15:20) 3.89 (20:00) 0 0 0 0 0
25-07-2018 34.3 (16:10) 15.9 (00:00) 25.1 8.61 (17:10) 2.78 (14:50) 0 0 0 0 0
24-07-2018 36.1 (16:40) 14.8 (00:00) 25.4 7.78 (13:20) 3.61 (15:30) 0 0 0 0 0
23-07-2018 33.7 (16:10) 16.9 (00:00) 25.3 8.89 (19:00) 3.89 (17:40) 0 0 0 0 0
22-07-2018 28.7 (16:20) 18.2 (00:00) 23.5 9.17 (11:30) 3.61 (11:30) 0 0 0 0 0
21-07-2018 33.5 (16:20) 15.6 (00:00) 24.6 8.61 (19:20) 4.17 (19:20) 0 0 0 0 0
20-07-2018 36.2 (17:10) 15.1 (00:00) 25.7 8.33 (19:40) 3.33 (18:40) 0 0 0 0 0

Gráficas

Temp. máximas Temp. mínimas Temp. medias Precipitaciones Rachas de viento máximas Velocidades máximas media en intervalos de 10 minutos

Datos horarios

Fecha y hora oficial Temperatura (ºC) Velocidad del viento (km/h) Dirección del viento Racha (km/h) Dirección de racha Precipitación (mm) Presión (hPa) Tendencia (hPa) Humedad (%)
2018-08-18 23:00:00 19.8 6 Este 15 Este 0 -- -- 82
2018-08-18 22:00:00 20.3 6 Este 18 Este 0 -- -- 81
2018-08-18 21:00:00 20.9 5 Este 20 Sudeste 0 -- -- 78
2018-08-18 20:00:00 22.2 9 Este 26 Este 0 -- -- 72
2018-08-18 19:00:00 24.1 10 Este 27 Sudeste 0 -- -- 64
2018-08-18 18:00:00 25.3 7 Este 23 Este 0 -- -- 59
2018-08-18 17:00:00 25.9 12 Este 25 Sudeste 0 -- -- 58
2018-08-18 16:00:00 26 9 Este 23 Este 0 -- -- 56
2018-08-18 15:00:00 26.1 10 Este 22 Este 0 -- -- 57
2018-08-18 14:00:00 24.6 7 Este 20 Este 0 -- -- 59
2018-08-18 13:00:00 23.3 7 Sudeste 21 Este 0 -- -- 63
2018-08-18 12:00:00 22.3 6 Este 16 Este 0 -- -- 68
2018-08-18 11:00:00 20.9 7 Este 19 Este 0 -- -- 76
2018-08-18 10:00:00 19.1 5 Este 12 Este 0 -- -- 85
2018-08-18 09:00:00 18.4 3 Este 14 Este 0 -- -- 88
2018-08-18 08:00:00 17.3 0 Calma 4 Este 0 -- -- 92
2018-08-18 07:00:00 16.7 0 Calma 3 Oeste 0 -- -- 91
2018-08-18 06:00:00 16 0 Calma 5 Sur 0 -- -- 92
2018-08-18 05:00:00 15.4 0 Calma 3 Sur 0 -- -- 93
2018-08-18 04:00:00 15.2 0 Calma 4 Sur 0 -- -- 91
2018-08-18 03:00:00 15.9 0 Calma 4 Este 0 -- -- 88
2018-08-18 02:00:00 17.1 0 Calma 10 Este 0 -- -- 85
2018-08-18 01:00:00 17.8 2 Sudeste 9 Este 0 -- -- 82
2018-08-18 00:00:00 18.9 2 Este 4 Sudeste 0 -- -- 81
2018-08-17 23:00:00 19.5 0 Calma 10 Este 0 -- -- 83
2018-08-17 22:00:00 19.5 0 Calma 4 Norte 0 -- -- 88
2018-08-17 21:00:00 19.8 0 Calma 16 Sur 0.2 -- -- 85
2018-08-17 20:00:00 20.2 2 Sudoeste 14 Nordeste 0.4 -- -- 82
2018-08-17 19:00:00 25 6 Sur 18 Sur 0 -- -- 56
2018-08-17 18:00:00 27 8 Sudeste 22 Sudeste 0 -- -- 52
2018-08-17 17:00:00 28.3 9 Sudeste 31 Este 0 -- -- 48
2018-08-17 16:00:00 28.6 8 Este 31 Este 0 -- -- 46
2018-08-17 15:00:00 29 9 Este 26 Sudeste 0 -- -- 44
2018-08-17 14:00:00 28.5 9 Este 26 Este 0 -- -- 46
2018-08-17 13:00:00 27.6 10 Este 26 Este 0 -- -- 50
2018-08-17 12:00:00 26.2 5 Este 17 Nordeste 0 -- -- 56
2018-08-17 11:00:00 24.6 3 Nordeste 11 Nordeste 0 -- -- 60
2018-08-17 10:00:00 21.4 4 Nordeste 10 Norte 0 -- -- 69
2018-08-17 09:00:00 18.2 2 Oeste 4 Oeste 0 -- -- 83
2018-08-17 08:00:00 17.1 0 Calma 4 Sudoeste 0 -- -- 89
2018-08-17 07:00:00 16.7 0 Calma 5 Sudoeste 0 -- -- 85
2018-08-17 06:00:00 16.7 0 Calma 6 Oeste 0 -- -- 84
2018-08-17 05:00:00 17.6 0 Calma 6 Este 0 -- -- 77
2018-08-17 04:00:00 17.8 0 Calma 5 Sur 0 -- -- 77
2018-08-17 03:00:00 17.6 0 Calma 9 Sudoeste 0 -- -- 74
2018-08-17 02:00:00 18.1 5 Sudoeste 8 Sudoeste 0 -- -- 74
2018-08-17 01:00:00 18.8 3 Sur 6 Sur 0 -- -- 74
2018-08-17 00:00:00 19.5 0 Calma 4 Sur 0 -- -- 73
2018-08-16 23:00:00 20.1 0 Calma 6 Sur 0 -- -- 71
2018-08-16 22:00:00 20.8 2 Oeste 10 Oeste 0 -- -- 68
2018-08-16 21:00:00 22.3 5 Oeste 12 Oeste 0 -- -- 61
2018-08-16 20:00:00 23.9 6 Oeste 19 Oeste 0 -- -- 54
2018-08-16 19:00:00 25.4 6 Oeste 13 Sudoeste 0 -- -- 46
2018-08-16 18:00:00 24.8 5 Oeste 16 Sudoeste 0 -- -- 51
2018-08-16 17:00:00 23.7 8 Sur 17 Sudoeste 0 -- -- 56
2018-08-16 16:00:00 24.4 5 Este 16 Este 0 -- -- 58
2018-08-16 15:00:00 25 4 Nordeste 10 Norte 0 -- -- 57
2018-08-16 14:00:00 23.6 2 Este 8 Sudoeste 0 -- -- 63
2018-08-16 13:00:00 23.4 4 Oeste 8 Noroeste 0 -- -- 62
2018-08-16 12:00:00 22.7 4 Noroeste 15 Oeste 0 -- -- 65
2018-08-16 11:00:00 22.3 6 Norte 15 Noroeste 0 -- -- 65
2018-08-16 10:00:00 21.9 4 Oeste 12 Noroeste 0 -- -- 81
2018-08-16 09:00:00 21.4 3 Sudoeste 9 Sudoeste 0 -- -- 85
2018-08-16 08:00:00 19.9 0 Calma 5 Sur 0 -- -- 91
2018-08-16 07:00:00 19.5 0 Calma 2 Sur 0 -- -- 90
2018-08-16 06:00:00 19.5 0 Calma 4 Oeste 0 -- -- 89
2018-08-16 05:00:00 19.9 0 Calma 3 Oeste 0 -- -- 88
2018-08-16 04:00:00 20.8 3 Sur 8 Sur 0 -- -- 86
2018-08-16 03:00:00 21.4 2 Sur 8 Sur 0 -- -- 84
2018-08-16 02:00:00 21.8 2 Sudeste 11 Sur 0 -- -- 84
2018-08-16 01:00:00 21.8 4 Este 10 Este 0 -- -- 84
2018-08-16 00:00:00 21.6 3 Sudeste 13 Sur 0 -- -- 85
2018-08-15 23:00:00 22.2 4 Este 13 Sur 0 -- -- 82
2018-08-15 22:00:00 22.7 5 Sur 19 Sur 0 -- -- 79
2018-08-15 21:00:00 23.5 9 Sur 23 Sudeste 0 -- -- 76
2018-08-15 20:00:00 24.8 7 Sudeste 21 Este 0 -- -- 70
2018-08-15 19:00:00 25.3 4 Este 25 Este 0 -- -- 65
2018-08-15 18:00:00 25.6 8 Este 34 Este 0 -- -- 62
2018-08-15 17:00:00 29.7 9 Este 26 Sudeste 0 -- -- 50
2018-08-15 16:00:00 30.1 8 Sudeste 20 Sur 0 -- -- 48
2018-08-15 15:00:00 29.9 6 Sudeste 25 Sudeste 0 -- -- 48
2018-08-15 14:00:00 28 7 Sudeste 22 Sur 0 -- -- 55
2018-08-15 13:00:00 26.6 6 Sur 19 Sudeste 0 -- -- 59
2018-08-15 12:00:00 25.7 5 Sudeste 18 Nordeste 0 -- -- 62
2018-08-15 11:00:00 24.9 6 Este 16 Nordeste 0 -- -- 68
2018-08-15 10:00:00 22.3 5 Este 13 Este 0 -- -- 80
2018-08-15 09:00:00 20.3 2 Este 7 Este 0 -- -- 89
2018-08-15 08:00:00 18.9 0 Calma 10 Este 0 -- -- 90
2018-08-15 07:00:00 19.3 3 Sudeste 8 Sudeste 0 -- -- 90
2018-08-15 06:00:00 19.6 2 Sudeste 7 Sudeste 0 -- -- 90
2018-08-15 05:00:00 19.4 3 Este 9 Sudeste 0 -- -- 91
2018-08-15 04:00:00 19.4 0 Calma 8 Sudeste 0 -- -- 89
2018-08-15 03:00:00 19.8 2 Este 9 Sudeste 0 -- -- 88
2018-08-15 02:00:00 20.1 4 Este 11 Sudeste 0 -- -- 87
2018-08-15 01:00:00 20.9 5 Este 13 Este 0 -- -- 84
2018-08-15 00:00:00 21.3 4 Este 14 Sudeste 0 -- -- 81
2018-08-14 23:00:00 21.5 4 Este 17 Sudeste 0 -- -- 79
2018-08-14 22:00:00 23.5 6 Este 19 Sudeste 0 -- -- 70
2018-08-14 21:00:00 25.2 6 Sudeste 21 Sudeste 0 -- -- 63
2018-08-14 20:00:00 27 9 Este 22 Sudeste 0 -- -- 56
2018-08-14 19:00:00 28.5 10 Este 26 Nordeste 0 -- -- 51
2018-08-14 18:00:00 29.9 9 Este 28 Este 0 -- -- 46
2018-08-14 17:00:00 29.9 14 Este 27 Este 0 -- -- 45
2018-08-14 16:00:00 31.8 8 Sudeste 21 Sur 0 -- -- 38
2018-08-14 15:00:00 30.2 6 Norte 22 Nordeste 0 -- -- 43
2018-08-14 14:00:00 29.3 6 Este 20 Este 0 -- -- 48
2018-08-14 13:00:00 27.7 7 Este 19 Este 0 -- -- 54
2018-08-14 12:00:00 26.6 9 Este 18 Este 0 -- -- 58
2018-08-14 11:00:00 24 9 Este 21 Este 0 -- -- 70
2018-08-14 10:00:00 21.8 9 Este 23 Este 0 -- -- 80
2018-08-14 09:00:00 19.6 2 Este 9 Nordeste 0 -- -- 95
2018-08-14 08:00:00 16.9 0 Calma 3 Sudoeste 0 -- -- 95
2018-08-14 07:00:00 16.6 0 Calma 3 Sudoeste 0 -- -- 92
2018-08-14 06:00:00 17.1 0 Calma 2 Sudoeste 0 -- -- 92
2018-08-14 05:00:00 17.6 0 Calma 6 Este 0 -- -- 91
2018-08-14 04:00:00 18.1 3 Este 9 Este 0 -- -- 92
2018-08-14 03:00:00 18.5 2 Sudoeste 5 Sudoeste 0 -- -- 87
2018-08-14 02:00:00 19.5 0 Calma 6 Sur 0 -- -- 84
2018-08-14 01:00:00 20.6 0 Calma 4 Oeste 0 -- -- 83
2018-08-14 00:00:00 22.2 0 Calma 3 Sudoeste 0 -- -- 80
2018-08-13 23:00:00 24.2 0 Calma 8 Sudeste 0 -- -- 75
2018-08-13 22:00:00 25.8 4 Sudeste 21 Sudeste 0 -- -- 69
2018-08-13 21:00:00 28.2 6 Sudeste 23 Este 0 -- -- 61
2018-08-13 20:00:00 32 4 Noroeste 22 Sudoeste 0 -- -- 26
2018-08-13 19:00:00 33.5 6 Noroeste 19 Noroeste 0 -- -- 24
2018-08-13 18:00:00 34.7 11 Noroeste 25 Noroeste 0 -- -- 23
2018-08-13 17:00:00 35.1 10 Oeste 22 Oeste 0 -- -- 24
2018-08-13 16:00:00 34.3 8 Oeste 24 Oeste 0 -- -- 26
2018-08-13 15:00:00 34 8 Oeste 23 Noroeste 0 -- -- 26
2018-08-13 14:00:00 32.4 8 Noroeste 20 Noroeste 0 -- -- 31
2018-08-13 13:00:00 29.7 6 Oeste 19 Sudoeste 0 -- -- 47
2018-08-13 12:00:00 26.8 7 Oeste 20 Oeste 0 -- -- 56
2018-08-13 11:00:00 24.7 8 Oeste 21 Sudoeste 0 -- -- 69
2018-08-13 10:00:00 22.9 9 Sudoeste 22 Oeste 0 -- -- 79
2018-08-13 09:00:00 20.1 5 Sudoeste 16 Oeste 0 -- -- 94
2018-08-13 08:00:00 18.5 0 Calma 5 Oeste 0 -- -- 95
2018-08-13 07:00:00 18.8 0 Calma 3 Este 0 -- -- 92
2018-08-13 06:00:00 19.8 0 Calma 4 Noroeste 0 -- -- 92
2018-08-13 05:00:00 20.6 0 Calma 10 Este 0 -- -- 92
2018-08-13 04:00:00 20.5 0 Calma 19 Este 0 -- -- 93
2018-08-13 03:00:00 20.5 6 Este 20 Este 0.2 -- -- 93
2018-08-13 02:00:00 21.3 5 Este 16 Sudeste 2 -- -- 90
2018-08-13 01:00:00 21.5 5 Este 15 Sudeste 0 -- -- 87
2018-08-13 00:00:00 21.7 5 Sudeste 17 Sudeste 0 -- -- 86
2018-08-12 23:00:00 23 7 Este 20 Sudeste 0 -- -- 79
2018-08-12 22:00:00 24.7 6 Este 21 Sudeste 0 -- -- 60
2018-08-12 21:00:00 26.7 7 Sudeste 19 Sudeste 0 -- -- 52
2018-08-12 20:00:00 29.6 8 Sudeste 26 Sudeste 0 -- -- 45
2018-08-12 19:00:00 31.3 12 Sudeste 29 Sudeste 0 -- -- 40
2018-08-12 18:00:00 32.7 11 Sur 33 Sudeste 0 -- -- 36
2018-08-12 17:00:00 33.3 11 Sur 28 Sur 0 -- -- 36
2018-08-12 16:00:00 34.8 10 Sur 23 Sudoeste 0 -- -- 29
2018-08-12 15:00:00 33.6 8 Sur 21 Sudoeste 0 -- -- 30
2018-08-12 14:00:00 32.4 9 Sur 20 Sur 0 -- -- 31
2018-08-12 13:00:00 31.4 7 Sudoeste 18 Sudoeste 0 -- -- 33
2018-08-12 12:00:00 29.2 6 Nordeste 14 Este 0 -- -- 47
2018-08-12 11:00:00 25.7 5 Nordeste 12 Nordeste 0 -- -- 59
2018-08-12 10:00:00 23.3 5 Nordeste 9 Nordeste 0 -- -- 72
2018-08-12 09:00:00 19.5 2 Oeste 8 Sudoeste 0 -- -- 84
2018-08-12 08:00:00 16 2 Sur 6 Sudoeste 0 -- -- 93
2018-08-12 07:00:00 16 2 Sur 5 Sur 0 -- -- 91
2018-08-12 06:00:00 16.2 3 Sudoeste 7 Sudoeste 0 -- -- 91
2018-08-12 05:00:00 16.3 0 Calma 8 Sur 0 -- -- 88
2018-08-12 04:00:00 16.7 3 Sudoeste 6 Sur 0 -- -- 86
2018-08-12 03:00:00 17.2 0 Calma 8 Sudoeste 0 -- -- 84
2018-08-12 02:00:00 18 2 Sudoeste 5 Oeste 0 -- -- 82
2018-08-12 01:00:00 19.1 0 Calma 6 Sur 0 -- -- 79
2018-08-12 00:00:00 20.7 0 Calma 6 Sur 0 -- -- 76
2018-08-11 23:00:00 22.4 2 Sudeste 15 Sudeste 0 -- -- 71
2018-08-11 22:00:00 23.5 4 Sur 14 Sudoeste 0 -- -- 67
2018-08-11 21:00:00 25.1 6 Sur 20 Sur 0 -- -- 60
2018-08-11 20:00:00 27.1 7 Sudeste 23 Sudeste 0 -- -- 49
2018-08-11 19:00:00 28.9 10 Sudeste 24 Sudeste 0 -- -- 60
2018-08-11 18:00:00 28.8 9 Este 31 Este 0 -- -- 59
2018-08-11 17:00:00 30.9 7 Sur 21 Este 0 -- -- 45
2018-08-11 16:00:00 30.9 6 Sur 22 Sur 0 -- -- 44
2018-08-11 15:00:00 30.5 5 Sur 21 Sur 0 -- -- 47
2018-08-11 14:00:00 28.7 8 Sur 21 Sur 0 -- -- 51
2018-08-11 13:00:00 27.8 9 Sudeste 21 Sudeste 0 -- -- 55
2018-08-11 12:00:00 26.7 7 Este 29 Sudeste 0 -- -- 61
2018-08-11 11:00:00 24 8 Este 17 Este 0 -- -- 76
2018-08-11 10:00:00 22 5 Este 17 Este 0 -- -- 85
2018-08-11 09:00:00 20.5 4 Este 15 Este 0 -- -- 93
2018-08-11 08:00:00 20.1 4 Este 11 Este 0 -- -- 93
2018-08-11 07:00:00 19.9 2 Este 6 Este 0 -- -- 94
2018-08-11 06:00:00 20 3 Este 18 Este 0 -- -- 94
2018-08-11 05:00:00 20.2 0 Calma 6 Sudeste 0 -- -- 94
2018-08-11 04:00:00 20.2 0 Calma 9 Este 0 -- -- 94
2018-08-11 03:00:00 20.6 3 Este 8 Sudeste 0 -- -- 94
2018-08-11 02:00:00 20.9 3 Este 10 Este 0 -- -- 93
2018-08-11 01:00:00 21.1 4 Este 10 Este 0 -- -- 93
2018-08-11 00:00:00 20.9 3 Este 13 Nordeste 0 -- -- 93
2018-08-10 23:00:00 21.2 12 Este 31 Sudeste 0.2 -- -- 93
2018-08-10 22:00:00 21.5 5 Sudeste 24 Este 0.4 -- -- 91
2018-08-10 21:00:00 22 11 Este 23 Nordeste 0 -- -- 86
2018-08-10 20:00:00 22.6 9 Este 27 Nordeste 0 -- -- 82
2018-08-10 19:00:00 23.2 10 Este 31 Este 0 -- -- 79
2018-08-10 18:00:00 24.7 14 Este 35 Nordeste 0 -- -- 71
2018-08-10 17:00:00 28.3 13 Este 32 Este 0 -- -- 58
2018-08-10 16:00:00 28.8 10 Este 28 Este 0 -- -- 56
2018-08-10 15:00:00 28.5 12 Este 27 Este 0 -- -- 55
2018-08-10 14:00:00 27 10 Este 27 Este 0 -- -- 60
2018-08-10 13:00:00 25.1 11 Este 27 Este 0 -- -- 66
2018-08-10 12:00:00 23.1 9 Este 25 Este 0 -- -- 73
2018-08-10 11:00:00 21.2 9 Este 25 Nordeste 0 -- -- 79
2018-08-10 10:00:00 19.5 9 Este 21 Este 0 -- -- 86
2018-08-10 09:00:00 19.1 9 Este 32 Este 0 -- -- 91
2018-08-10 08:00:00 19.1 6 Este 22 Nordeste 0 -- -- 92
2018-08-10 07:00:00 18.5 8 Este 32 Este 0 -- -- 91
2018-08-10 06:00:00 19.3 10 Este 28 Nordeste 0 -- -- 90
2018-08-10 05:00:00 19.7 10 Este 25 Nordeste 0 -- -- 90
2018-08-10 04:00:00 20.7 7 Este 19 Este 0 -- -- 93
2018-08-10 03:00:00 20.8 6 Este 17 Este 0 -- -- 93
2018-08-10 02:00:00 20.9 5 Este 21 Este 0 -- -- 93
2018-08-10 01:00:00 20.6 3 Este 14 Este 0.6 -- -- 92
2018-08-10 00:00:00 21.3 5 Noroeste 19 Este 0.4 -- -- 90
2018-08-09 23:00:00 21.3 6 Este 24 Sudeste 0 -- -- 88
2018-08-09 22:00:00 21 3 Sur 32 Norte 4.2 -- -- 87
2018-08-09 21:00:00 27.2 5 Sur 25 Este 0 -- -- 58
2018-08-09 20:00:00 29.1 12 Sudeste 25 Este 0 -- -- 54
2018-08-09 19:00:00 33.1 9 Noroeste 23 Sudeste 0 -- -- 23
2018-08-09 18:00:00 33.9 5 Oeste 27 Oeste 0 -- -- 25
2018-08-09 17:00:00 34.2 9 Noroeste 27 Oeste 0 -- -- 25
2018-08-09 16:00:00 33.3 9 Oeste 27 Sudoeste 0 -- -- 26
2018-08-09 15:00:00 33.1 8 Oeste 24 Noroeste 0 -- -- 28
2018-08-09 14:00:00 31.8 11 Oeste 28 Oeste 0 -- -- 30
2018-08-09 13:00:00 30.6 6 Noroeste 18 Noroeste 0 -- -- 33
2018-08-09 12:00:00 29.1 8 Noroeste 17 Noroeste 0 -- -- 36
2018-08-09 11:00:00 27.5 6 Noroeste 17 Oeste 0 -- -- 38
2018-08-09 10:00:00 25.2 8 Oeste 17 Oeste 0 -- -- 40
2018-08-09 09:00:00 20.9 0 Calma 9 Sudoeste 0 -- -- 78
2018-08-09 08:00:00 16.3 3 Oeste 9 Sur 0 -- -- 90
2018-08-09 07:00:00 16.6 3 Sur 8 Sur 0 -- -- 90
2018-08-09 06:00:00 17.1 0 Calma 6 Sur 0 -- -- 90
2018-08-09 05:00:00 17.8 4 Sudoeste 8 Sudoeste 0 -- -- 90
2018-08-09 04:00:00 19 2 Sur 4 Sur 0 -- -- 88
2018-08-09 03:00:00 20.3 2 Sudoeste 7 Sur 0 -- -- 84
2018-08-09 02:00:00 21.2 0 Calma 19 Sudoeste 0 -- -- 82
2018-08-09 01:00:00 21.8 10 Sur 25 Sur 0 -- -- 73
2018-08-09 00:00:00 21 6 Sudeste 30 Oeste 0.2 -- -- 67
2018-08-08 23:00:00 23.3 12 Oeste 28 Oeste 0 -- -- 55
2018-08-08 22:00:00 23.7 7 Sudeste 28 Oeste 0 -- -- 50
2018-08-08 21:00:00 24.2 11 Sudoeste 37 Sur 0 -- -- 51
2018-08-08 20:00:00 23.5 7 Sur 36 Sur 0.6 -- -- 50
2018-08-08 19:00:00 24.1 19 Sudoeste 65 Sur 0.4 -- -- 50
2018-08-08 18:00:00 29 14 Sudoeste 48 Oeste 0 -- -- 29
2018-08-08 17:00:00 32.1 9 Sur 28 Sur 0 -- -- 37
2018-08-08 16:00:00 34.3 11 Sudeste 28 Sur 0 -- -- 33
2018-08-08 15:00:00 33.7 12 Sudeste 31 Sudeste 0 -- -- 34
2018-08-08 14:00:00 32.6 8 Sudeste 24 Este 0 -- -- 37
2018-08-08 13:00:00 30.7 9 Sudeste 21 Sur 0 -- -- 41
2018-08-08 12:00:00 29.3 8 Sur 21 Sur 0 -- -- 47
2018-08-08 11:00:00 26.5 5 Este 12 Este 0 -- -- 63
2018-08-08 10:00:00 23.8 4 Nordeste 9 Este 0 -- -- 73
2018-08-08 09:00:00 20.4 0 Calma 5 Sur 0 -- -- 83
2018-08-08 08:00:00 17.1 3 Oeste 6 Oeste 0 -- -- 86
2018-08-08 07:00:00 17.1 3 Sur 9 Sudoeste 0 -- -- 85
2018-08-08 06:00:00 17.3 2 Sudoeste 4 Sudoeste 0 -- -- 81
2018-08-08 05:00:00 18 2 Sudeste 5 Sur 0 -- -- 75
2018-08-08 04:00:00 19.1 0 Calma 12 Sudoeste 0 -- -- 67
2018-08-08 03:00:00 20.6 5 Sur 13 Sudoeste 0 -- -- 59
2018-08-08 02:00:00 21.2 5 Sur 9 Sudoeste 0 -- -- 57
2018-08-08 01:00:00 22.9 0 Calma 21 Sudoeste 0 -- -- 54
2018-08-08 00:00:00 22.9 5 Sur 15 Sur 0 -- -- 62
2018-08-07 23:00:00 23.4 3 Nordeste 11 Este 0 -- -- 64
2018-08-07 22:00:00 24.2 6 Nordeste 22 Nordeste 0 -- -- 62
2018-08-07 21:00:00 27.3 5 Este 27 Este 0 -- -- 44
2018-08-07 20:00:00 28.2 4 Sur 22 Sur 0 -- -- 49
2018-08-07 19:00:00 29.5 10 Sur 29 Sur 0 -- -- 47
2018-08-07 18:00:00 31.3 10 Sudeste 29 Sur 0 -- -- 43
2018-08-07 17:00:00 34 12 Sudeste 30 Sur 0 -- -- 37
2018-08-07 16:00:00 34.6 11 Sudeste 26 Sudeste 0 -- -- 37
2018-08-07 15:00:00 34.1 10 Sur 22 Sur 0 -- -- 34
2018-08-07 14:00:00 33.9 8 Sudoeste 21 Noroeste 0 -- -- 30
2018-08-07 13:00:00 32.6 8 Sur 19 Sur 0 -- -- 34
2018-08-07 12:00:00 30.8 7 Sudoeste 17 Sudeste 0 -- -- 37
2018-08-07 11:00:00 29.3 6 Sudoeste 16 Sudoeste 0 -- -- 40
2018-08-07 10:00:00 26 3 Nordeste 11 Sur 0 -- -- 54
2018-08-07 09:00:00 21.5 2 Sudoeste 8 Sudoeste 0 -- -- 67
2018-08-07 08:00:00 16.9 0 Calma 8 Oeste 0 -- -- 82
2018-08-07 07:00:00 16.5 0 Calma 5 Sudoeste 0 -- -- 81
2018-08-07 06:00:00 17.2 0 Calma 6 Sudoeste 0 -- -- 77
2018-08-07 05:00:00 18.7 3 Sur 10 Sudoeste 0 -- -- 71
2018-08-07 04:00:00 18.9 5 Sur 10 Sur 0 -- -- 69
2018-08-07 03:00:00 19.7 0 Calma 9 Sudoeste 0 -- -- 59
2018-08-07 02:00:00 21 4 Sudoeste 8 Sudoeste 0 -- -- 54
2018-08-07 01:00:00 23 3 Sudeste 15 Sur 0 -- -- 47
2018-08-07 00:00:00 24.5 6 Sudoeste 16 Sur 0 -- -- 40
2018-08-06 23:00:00 26 3 Sudeste 19 Noroeste 0 -- -- 38
2018-08-06 22:00:00 25.1 5 Norte 17 Norte 0 -- -- 40
2018-08-06 21:00:00 26 6 Nordeste 33 Nordeste 0 -- -- 39
2018-08-06 20:00:00 29.3 6 Sur 33 Sur 0 -- -- 46
2018-08-06 19:00:00 29.6 15 Sur 29 Sur 0 -- -- 45
2018-08-06 18:00:00 28.7 13 Sur 30 Sur 0 -- -- 46
2018-08-06 17:00:00 30.8 17 Este 38 Sudeste 0 -- -- 41
2018-08-06 16:00:00 34.7 5 Sur 22 Sudoeste 0 -- -- 27
2018-08-06 15:00:00 35.7 8 Sudeste 19 Sur 0 -- -- 26
2018-08-06 14:00:00 34.8 9 Sur 21 Sudoeste 0 -- -- 27
2018-08-06 13:00:00 33.6 8 Sur 19 Sur 0 -- -- 30
2018-08-06 12:00:00 31.6 10 Sur 20 Sudeste 0 -- -- 35
2018-08-06 11:00:00 29.5 7 Sudoeste 19 Sudoeste 0 -- -- 42
2018-08-06 10:00:00 25 2 Este 7 Sudeste 0 -- -- 62
2018-08-06 09:00:00 20.9 0 Calma 7 Sudoeste 0 -- -- 82
2018-08-06 08:00:00 18.7 2 Sudoeste 8 Sudoeste 0 -- -- 83
2018-08-06 07:00:00 18 0 Calma 7 Sudoeste 0 -- -- 89
2018-08-06 06:00:00 18.3 2 Sur 5 Sur 0 -- -- 88
2018-08-06 05:00:00 19 4 Sudoeste 9 Sudoeste 0 -- -- 86
2018-08-06 04:00:00 19.6 4 Sudoeste 9 Sur 0 -- -- 88
2018-08-06 03:00:00 20 2 Este 14 Sur 0 -- -- 87
2018-08-06 02:00:00 20 4 Este 17 Oeste 0.2 -- -- 87
2018-08-06 01:00:00 21.1 6 Sudoeste 20 Nordeste 2 -- -- 82
2018-08-06 00:00:00 23.9 2 Sudeste 6 Este 0 -- -- 61
2018-08-05 23:00:00 25.3 0 Calma 18 Sur 0 -- -- 54
2018-08-05 22:00:00 26.4 8 Sur 18 Sur 0 -- -- 50
2018-08-05 21:00:00 28.2 8 Sur 24 Sur 0 -- -- 45
2018-08-05 20:00:00 29.9 12 Sur 25 Sur 0 -- -- 41
2018-08-05 19:00:00 31 8 Sudeste 23 Sudeste 0 -- -- 41
2018-08-05 18:00:00 26.4 8 Sur 28 Sudeste 1 -- -- 61
2018-08-05 17:00:00 32.3 10 Sudeste 31 Este 1.4 -- -- 50
2018-08-05 16:00:00 35.7 9 Sudoeste 26 Sur 0 -- -- 27
2018-08-05 15:00:00 35 8 Sur 23 Sur 0 -- -- 28
2018-08-05 14:00:00 34 9 Sur 24 Sudoeste 0 -- -- 29
2018-08-05 13:00:00 33.4 8 Sudoeste 24 Sur 0 -- -- 30
2018-08-05 12:00:00 32.7 9 Sur 24 Sur 0 -- -- 31
2018-08-05 11:00:00 31.7 5 Este 16 Este 0 -- -- 32
2018-08-05 10:00:00 27.6 5 Nordeste 8 Este 0 -- -- 40
2018-08-05 09:00:00 22.5 2 Oeste 4 Sudoeste 0 -- -- 53
2018-08-05 08:00:00 17.2 0 Calma 5 Sudoeste 0 -- -- 68
2018-08-05 07:00:00 16.8 2 Sudoeste 8 Sudoeste 0 -- -- 68
2018-08-05 06:00:00 17.7 4 Sudoeste 10 Sudoeste 0 -- -- 66
2018-08-05 05:00:00 18.5 2 Sudoeste 9 Sudoeste 0 -- -- 63
2018-08-05 04:00:00 18.8 4 Sudoeste 9 Sudoeste 0 -- -- 62
2018-08-05 03:00:00 19.5 0 Calma 6 Sudoeste 0 -- -- 60
2018-08-05 02:00:00 20.4 2 Sudoeste 5 Sudoeste 0 -- -- 58
2018-08-05 01:00:00 21.5 0 Calma 4 Sudoeste 0 -- -- 55
2018-08-05 00:00:00 23.3 0 Calma 8 Sur 0 -- -- 51
2018-08-04 23:00:00 25.4 5 Sudoeste 13 Sur 0 -- -- 47
2018-08-04 22:00:00 26.9 8 Sur 22 Sudeste 0 -- -- 44
2018-08-04 21:00:00 28.7 7 Sudeste 21 Sur 0 -- -- 42
2018-08-04 20:00:00 31.3 9 Sudeste 22 Sudeste 0 -- -- 37
2018-08-04 19:00:00 33.4 8 Sudeste 22 Sudeste 0 -- -- 32
2018-08-04 18:00:00 34.1 14 Sudeste 27 Sudeste 0 -- -- 31
2018-08-04 17:00:00 36.4 9 Este 24 Sudeste 0 -- -- 26
2018-08-04 16:00:00 36.9 8 Norte 24 Norte 0 -- -- 24
2018-08-04 15:00:00 35.7 6 Nordeste 19 Nordeste 0 -- -- 26
2018-08-04 14:00:00 34.9 8 Nordeste 16 Nordeste 0 -- -- 27
2018-08-04 13:00:00 34.1 8 Nordeste 17 Este 0 -- -- 26
2018-08-04 12:00:00 32.2 4 Nordeste 11 Nordeste 0 -- -- 36
2018-08-04 11:00:00 29.5 4 Nordeste 11 Norte 0 -- -- 41
2018-08-04 10:00:00 26.2 3 Nordeste 9 Norte 0 -- -- 52
2018-08-04 09:00:00 22.1 2 Noroeste 5 Noroeste 0 -- -- 66
2018-08-04 08:00:00 16.8 3 Sudoeste 7 Oeste 0 -- -- 82
2018-08-04 07:00:00 16.1 2 Sudoeste 5 Sudoeste 0 -- -- 80
2018-08-04 06:00:00 16.9 0 Calma 4 Sudoeste 0 -- -- 77
2018-08-04 05:00:00 17.9 2 Sudoeste 4 Sudoeste 0 -- -- 74
2018-08-04 04:00:00 19.2 0 Calma 6 Sudoeste 0 -- -- 71
2018-08-04 03:00:00 19.9 0 Calma 5 Sudoeste 0 -- -- 71
2018-08-04 02:00:00 20.7 0 Calma 4 Sur 0 -- -- 69
2018-08-04 01:00:00 22.6 0 Calma 12 Sudeste 0 -- -- 64
2018-08-04 00:00:00 24 6 Sudeste 14 Sudeste 0 -- -- 62
2018-08-03 23:00:00 25.4 4 Sudeste 12 Este 0 -- -- 57
2018-08-03 22:00:00 27.1 4 Este 17 Este 0 -- -- 48
2018-08-03 21:00:00 29.5 7 Este 24 Este 0 -- -- 41
2018-08-03 20:00:00 32.6 7 Sudeste 22 Este 0 -- -- 36
2018-08-03 19:00:00 34.9 9 Sudeste 24 Sudeste 0 -- -- 31
2018-08-03 18:00:00 36.5 8 Sudeste 26 Este 0 -- -- 28
2018-08-03 17:00:00 36.8 10 Sudeste 33 Sudeste 0 -- -- 27
2018-08-03 16:00:00 38 9 Sudeste 28 Este 0 -- -- 24
2018-08-03 15:00:00 38.3 6 Nordeste 21 Nordeste 0 -- -- 19
2018-08-03 14:00:00 37.2 4 Noroeste 18 Sudoeste 0 -- -- 23
2018-08-03 13:00:00 35.5 5 Sudoeste 19 Sudoeste 0 -- -- 26
2018-08-03 12:00:00 33.9 5 Sur 16 Oeste 0 -- -- 27
2018-08-03 11:00:00 31.4 5 Nordeste 10 Este 0 -- -- 36
2018-08-03 10:00:00 27.8 3 Norte 9 Nordeste 0 -- -- 47
2018-08-03 09:00:00 22.7 4 Sudoeste 6 Sudoeste 0 -- -- 62
2018-08-03 08:00:00 18 2 Sudoeste 7 Sur 0 -- -- 79
2018-08-03 07:00:00 17.5 3 Sur 7 Sur 0 -- -- 81
2018-08-03 06:00:00 17.8 2 Sudoeste 4 Sudoeste 0 -- -- 78
2018-08-03 05:00:00 18.6 0 Calma 6 Sudoeste 0 -- -- 74
2018-08-03 04:00:00 19.3 0 Calma 5 Sudoeste 0 -- -- 71
2018-08-03 03:00:00 20.5 3 Sudoeste 8 Sudoeste 0 -- -- 69
2018-08-03 02:00:00 21.2 0 Calma 8 Sur 0 -- -- 66
2018-08-03 01:00:00 22.2 0 Calma 5 Sur 0 -- -- 63
2018-08-03 00:00:00 23.9 2 Sur 5 Sudoeste 0 -- -- 58
2018-08-02 23:00:00 26.1 2 Sur 12 Sudeste 0 -- -- 52
2018-08-02 22:00:00 28 3 Este 12 Sudeste 0 -- -- 47
2018-08-02 21:00:00 30.5 6 Sudeste 23 Este 0 -- -- 39
2018-08-02 20:00:00 33 8 Este 22 Sudeste 0 -- -- 34
2018-08-02 19:00:00 34.8 8 Este 27 Este 0 -- -- 29
2018-08-02 18:00:00 36.2 7 Este 24 Sudeste 0 -- -- 25
2018-08-02 17:00:00 36.8 6 Este 22 Este 0 -- -- 24
2018-08-02 16:00:00 36.6 7 Este 23 Nordeste 0 -- -- 24
2018-08-02 15:00:00 36.1 8 Este 18 Este 0 -- -- 26
2018-08-02 14:00:00 35.3 10 Nordeste 20 Este 0 -- -- 24
2018-08-02 13:00:00 34 8 Este 23 Este 0 -- -- 24
2018-08-02 12:00:00 32.5 8 Este 18 Este 0 -- -- 27
2018-08-02 11:00:00 30.1 6 Este 15 Este 0 -- -- 35
2018-08-02 10:00:00 27 6 Este 12 Este 0 -- -- 44
2018-08-02 09:00:00 22 0 Calma 3 Oeste 0 -- -- 60
2018-08-02 08:00:00 15.7 0 Calma 4 Sudoeste 0 -- -- 79
2018-08-02 07:00:00 14.9 0 Calma 3 Sudoeste 0 -- -- 79
2018-08-02 06:00:00 15.3 2 Sudoeste 5 Sudoeste 0 -- -- 76
2018-08-02 05:00:00 16 0 Calma 6 Sudoeste 0 -- -- 73
2018-08-02 04:00:00 16.7 0 Calma 4 Sur 0 -- -- 71
2018-08-02 03:00:00 17.9 3 Sudoeste 7 Sudoeste 0 -- -- 67
2018-08-02 02:00:00 18.9 3 Sur 8 Sudoeste 0 -- -- 66
2018-08-02 01:00:00 20.2 0 Calma 8 Sudoeste 0 -- -- 61
2018-08-02 00:00:00 21.6 4 Sur 10 Sudoeste 0 -- -- 56
2018-08-01 23:00:00 23.3 0 Calma 6 Sur 0 -- -- 51
2018-08-01 22:00:00 26.4 3 Sur 17 Sudeste 0 -- -- 45
2018-08-01 21:00:00 29 7 Este 28 Este 0 -- -- 39
2018-08-01 20:00:00 31.3 11 Sudeste 27 Sudeste 0 -- -- 39
2018-08-01 19:00:00 32.9 10 Este 31 Este 0 -- -- 40
2018-08-01 18:00:00 34.2 10 Este 28 Sudeste 0 -- -- 36
2018-08-01 17:00:00 35.8 8 Este 24 Sudeste 0 -- -- 27
2018-08-01 16:00:00 35.7 9 Este 30 Sudeste 0 -- -- 23
2018-08-01 15:00:00 35.4 8 Este 21 Este 0 -- -- 26
2018-08-01 14:00:00 34.7 8 Sudeste 23 Este 0 -- -- 20
2018-08-01 13:00:00 34.3 7 Sudeste 24 Nordeste 0 -- -- 20
2018-08-01 12:00:00 32.4 7 Este 18 Nordeste 0 -- -- 25
2018-08-01 11:00:00 29.4 5 Este 15 Nordeste 0 -- -- 32
2018-08-01 10:00:00 26 3 Nordeste 9 Nordeste 0 -- -- 39
2018-08-01 09:00:00 21.1 3 Este 5 Sudeste 0 -- -- 50
2018-08-01 08:00:00 14.7 0 Calma 4 Sudoeste 0 -- -- 66
2018-08-01 07:00:00 13.7 2 Sudoeste 6 Sudoeste 0 -- -- 71
2018-08-01 06:00:00 14.5 3 Sudoeste 5 Sudoeste 0 -- -- 69
2018-08-01 05:00:00 15.3 0 Calma 2 Sudoeste 0 -- -- 66
2018-08-01 04:00:00 16 0 Calma 3 Sudoeste 0 -- -- 59
2018-08-01 03:00:00 17 0 Calma 7 Sudoeste 0 -- -- 49
2018-08-01 02:00:00 17.9 0 Calma 5 Sudeste 0 -- -- 51
2018-08-01 01:00:00 19.2 0 Calma 4 Sur 0 -- -- 40
2018-08-01 00:00:00 21.1 0 Calma 4 Sur 0 -- -- 39
2018-07-31 23:00:00 23.8 3 Sur 7 Sudeste 0 -- -- 30
2018-07-31 22:00:00 27.6 4 Sudeste 15 Sur 0 -- -- 23
2018-07-31 21:00:00 30 7 Sur 19 Sudeste 0 -- -- 26
2018-07-31 20:00:00 32.1 8 Sur 29 Sur 0 -- -- 25
2018-07-31 19:00:00 33.7 12 Sudeste 33 Sudeste 0 -- -- 26
2018-07-31 18:00:00 35 10 Sudeste 28 Sur 0 -- -- 26
2018-07-31 17:00:00 36.2 12 Sudeste 34 Este 0 -- -- 22
2018-07-31 16:00:00 36.5 11 Sudeste 29 Sudeste 0 -- -- 22
2018-07-31 15:00:00 36.4 7 Sur 23 Sudeste 0 -- -- 20
2018-07-31 14:00:00 35.8 8 Sudoeste 23 Sudoeste 0 -- -- 19
2018-07-31 13:00:00 35 8 Sudoeste 18 Este 0 -- -- 19
2018-07-31 12:00:00 34.1 8 Este 18 Este 0 -- -- 25
2018-07-31 11:00:00 30.8 5 Nordeste 10 Nordeste 0 -- -- 28
2018-07-31 10:00:00 26.8 2 Nordeste 8 Norte 0 -- -- 40
2018-07-31 09:00:00 22.4 2 Norte 4 Noroeste 0 -- -- 51
2018-07-31 08:00:00 17.2 0 Calma 8 Sudoeste 0 -- -- 65
2018-07-31 07:00:00 15.8 3 Sudoeste 9 Sudoeste 0 -- -- 67
2018-07-31 06:00:00 15.8 0 Calma 8 Sudoeste 0 -- -- 64
2018-07-31 05:00:00 16.4 2 Sudoeste 4 Sur 0 -- -- 62
2018-07-31 04:00:00 17.2 0 Calma 4 Sudoeste 0 -- -- 61
2018-07-31 03:00:00 18.3 0 Calma 7 Sudoeste 0 -- -- 57
2018-07-31 02:00:00 19.2 4 Sudoeste 9 Sur 0 -- -- 53
2018-07-31 01:00:00 20.3 2 Sudoeste 6 Sur 0 -- -- 53
2018-07-31 00:00:00 22 0 Calma 5 Sudoeste 0 -- -- 57
2018-07-30 23:00:00 24.7 0 Calma 9 Este 0 -- -- 48
2018-07-30 22:00:00 26.8 4 Sudeste 12 Sudeste 0 -- -- 40
2018-07-30 21:00:00 29 6 Sudeste 19 Sudeste 0 -- -- 35
2018-07-30 20:00:00 31.5 6 Sudeste 25 Sudeste 0 -- -- 36
2018-07-30 19:00:00 33.3 10 Sudeste 28 Sudeste 0 -- -- 33
2018-07-30 18:00:00 34.9 10 Sudeste 25 Este 0 -- -- 30
2018-07-30 17:00:00 36.2 9 Este 23 Este 0 -- -- 23
2018-07-30 16:00:00 36.4 6 Nordeste 24 Este 0 -- -- 17
2018-07-30 15:00:00 36.2 5 Este 22 Este 0 -- -- 17
2018-07-30 14:00:00 35.4 6 Este 18 Este 0 -- -- 17
2018-07-30 13:00:00 34.1 6 Norte 13 Nordeste 0 -- -- 16
2018-07-30 12:00:00 32.6 4 Este 14 Nordeste 0 -- -- 17
2018-07-30 11:00:00 30.3 4 Norte 12 Norte 0 -- -- 18
2018-07-30 10:00:00 27.6 4 Noroeste 11 Noroeste 0 -- -- 22
2018-07-30 09:00:00 24.5 6 Oeste 14 Oeste 0 -- -- 26
2018-07-30 08:00:00 20.7 2 Este 13 Oeste 0 -- -- 30
2018-07-30 07:00:00 20.1 0 Calma 15 Oeste 0 -- -- 29
2018-07-30 06:00:00 21.8 10 Oeste 19 Oeste 0 -- -- 25
2018-07-30 05:00:00 19.6 4 Sudoeste 13 Oeste 0 -- -- 27
2018-07-30 04:00:00 20.2 5 Oeste 12 Oeste 0 -- -- 26
2018-07-30 03:00:00 21 2 Nordeste 17 Oeste 0 -- -- 26
2018-07-30 02:00:00 23 9 Oeste 18 Sudoeste 0 -- -- 25
2018-07-30 01:00:00 21.1 5 Sudoeste 11 Sudoeste 0 -- -- 34
2018-07-30 00:00:00 22.6 4 Sudoeste 9 Sudoeste 0 -- -- 35
2018-07-29 23:00:00 25.2 2 Sudeste 8 Oeste 0 -- -- 31
2018-07-29 22:00:00 28.6 3 Oeste 19 Noroeste 0 -- -- 28
2018-07-29 21:00:00 31.3 9 Noroeste 22 Norte 0 -- -- 26
2018-07-29 20:00:00 33.4 9 Oeste 23 Oeste 0 -- -- 20
2018-07-29 19:00:00 34.3 9 Oeste 27 Norte 0 -- -- 20
2018-07-29 18:00:00 35.3 9 Oeste 27 Oeste 0 -- -- 20
2018-07-29 17:00:00 35.6 10 Oeste 28 Oeste 0 -- -- 19
2018-07-29 16:00:00 35.3 8 Oeste 24 Noroeste 0 -- -- 18
2018-07-29 15:00:00 34.7 7 Oeste 25 Noroeste 0 -- -- 17
2018-07-29 14:00:00 34.1 9 Noroeste 25 Noroeste 0 -- -- 16
2018-07-29 13:00:00 33.4 7 Norte 20 Oeste 0 -- -- 19
2018-07-29 12:00:00 31.8 6 Noroeste 13 Oeste 0 -- -- 21
2018-07-29 11:00:00 29.6 7 Oeste 18 Oeste 0 -- -- 22
2018-07-29 10:00:00 27 8 Noroeste 22 Noroeste 0 -- -- 26
2018-07-29 09:00:00 23.9 7 Noroeste 13 Oeste 0 -- -- 30
2018-07-29 08:00:00 18.2 2 Oeste 8 Oeste 0 -- -- 38
2018-07-29 07:00:00 17 3 Oeste 8 Sudoeste 0 -- -- 41
2018-07-29 06:00:00 18.5 4 Sudoeste 8 Sudoeste 0 -- -- 39
2018-07-29 05:00:00 17.8 2 Sudeste 6 Sudoeste 0 -- -- 44
2018-07-29 04:00:00 17 2 Sur 4 Oeste 0 -- -- 52
2018-07-29 03:00:00 17.9 0 Calma 8 Sudoeste 0 -- -- 54
2018-07-29 02:00:00 19.3 3 Sudoeste 8 Sudoeste 0 -- -- 51
2018-07-29 01:00:00 19.8 2 Sudoeste 6 Sur 0 -- -- 52
2018-07-29 00:00:00 21.4 2 Sudoeste 5 Sur 0 -- -- 49
2018-07-28 23:00:00 23.6 0 Calma 5 Sudeste 0 -- -- 45
2018-07-28 22:00:00 26.6 2 Nordeste 18 Sudeste 0 -- -- 40
2018-07-28 21:00:00 30.1 10 Sudeste 21 Sudeste 0 -- -- 38
2018-07-28 20:00:00 34.6 7 Oeste 23 Oeste 0 -- -- 17
2018-07-28 19:00:00 35.8 8 Oeste 21 Oeste 0 -- -- 17
2018-07-28 18:00:00 36.1 6 Oeste 25 Noroeste 0 -- -- 17
2018-07-28 17:00:00 36.8 9 Noroeste 23 Noroeste 0 -- -- 17
2018-07-28 16:00:00 36.6 8 Noroeste 22 Oeste 0 -- -- 16
2018-07-28 15:00:00 35.4 9 Oeste 23 Noroeste 0 -- -- 18
2018-07-28 14:00:00 34.7 8 Noroeste 20 Noroeste 0 -- -- 18
2018-07-28 13:00:00 34.1 8 Oeste 24 Oeste 0 -- -- 20
2018-07-28 12:00:00 33.3 9 Noroeste 22 Oeste 0 -- -- 22
2018-07-28 11:00:00 30.9 10 Noroeste 21 Oeste 0 -- -- 24
2018-07-28 10:00:00 27.5 10 Oeste 20 Noroeste 0 -- -- 28
2018-07-28 09:00:00 24.5 5 Oeste 20 Oeste 0 -- -- 31
2018-07-28 08:00:00 21.8 6 Oeste 16 Oeste 0 -- -- 32
2018-07-28 07:00:00 21 7 Oeste 18 Oeste 0 -- -- 33
2018-07-28 06:00:00 20.5 7 Oeste 16 Oeste 0 -- -- 39
2018-07-28 05:00:00 20.2 8 Oeste 17 Oeste 0 -- -- 52
2018-07-28 04:00:00 17.2 2 Sudoeste 8 Sudoeste 0 -- -- 65
2018-07-28 03:00:00 17.5 0 Calma 6 Sur 0 -- -- 55
2018-07-28 02:00:00 18.2 4 Oeste 9 Noroeste 0 -- -- 51
2018-07-28 01:00:00 18.7 2 Sur 5 Sur 0 -- -- 48
2018-07-28 00:00:00 20.2 2 Sur 4 Este 0 -- -- 45
2018-07-27 23:00:00 22.4 0 Calma 6 Sudoeste 0 -- -- 42
2018-07-27 22:00:00 25.8 3 Sur 17 Sur 0 -- -- 35
2018-07-27 21:00:00 28.2 9 Sur 23 Sur 0 -- -- 30
2018-07-27 20:00:00 31 12 Sudeste 24 Sur 0 -- -- 30
2018-07-27 19:00:00 33.2 12 Sur 27 Sur 0 -- -- 27
2018-07-27 18:00:00 34.6 13 Sudeste 31 Sur 0 -- -- 29
2018-07-27 17:00:00 35.8 12 Sur 28 Sur 0 -- -- 25
2018-07-27 16:00:00 36.4 7 Sudoeste 26 Sudoeste 0 -- -- 20
2018-07-27 15:00:00 35.5 9 Sur 24 Sudoeste 0 -- -- 21
2018-07-27 14:00:00 34.6 8 Sudoeste 22 Sudoeste 0 -- -- 24
2018-07-27 13:00:00 33.9 8 Sudeste 21 Este 0 -- -- 23
2018-07-27 12:00:00 32.1 5 Este 13 Nordeste 0 -- -- 31
2018-07-27 11:00:00 29.2 3 Sudeste 9 Norte 0 -- -- 35
2018-07-27 10:00:00 25.8 4 Nordeste 10 Este 0 -- -- 45
2018-07-27 09:00:00 21.5 2 Este 6 Nordeste 0 -- -- 56
2018-07-27 08:00:00 16.2 2 Sudoeste 6 Sudoeste 0 -- -- 70
2018-07-27 07:00:00 15.7 0 Calma 10 Sudoeste 0 -- -- 68
2018-07-27 06:00:00 17 2 Sudoeste 10 Sudoeste 0 -- -- 64
2018-07-27 05:00:00 16.5 4 Sudoeste 10 Sur 0 -- -- 68
2018-07-27 04:00:00 16.6 3 Sudoeste 7 Sur 0 -- -- 68
2018-07-27 03:00:00 17.9 3 Sudoeste 10 Oeste 0 -- -- 62
2018-07-27 02:00:00 18.5 3 Sudoeste 9 Sudoeste 0 -- -- 60
2018-07-27 01:00:00 19.2 2 Sur 7 Sudoeste 0 -- -- 54
2018-07-27 00:00:00 21.5 3 Sudoeste 6 Sudeste 0 -- -- 54
2018-07-26 23:00:00 24 3 Sudeste 10 Sudeste 0 -- -- 54
2018-07-26 22:00:00 26 0 Calma 18 Sur 0 -- -- 42
2018-07-26 21:00:00 28.4 8 Sur 24 Sudeste 0 -- -- 39
2018-07-26 20:00:00 30.7 14 Sur 27 Sur 0 -- -- 30
2018-07-26 19:00:00 33.4 13 Sudeste 28 Este 0 -- -- 28
2018-07-26 18:00:00 35.4 8 Sudeste 20 Sur 0 -- -- 22
2018-07-26 17:00:00 35.9 9 Sudeste 24 Sur 0 -- -- 21
2018-07-26 16:00:00 35.7 10 Sudeste 30 Este 0 -- -- 21
2018-07-26 15:00:00 35.1 6 Sudeste 19 Este 0 -- -- 23
2018-07-26 14:00:00 33.8 6 Nordeste 17 Nordeste 0 -- -- 25
2018-07-26 13:00:00 32.6 5 Norte 14 Este 0 -- -- 33
2018-07-26 12:00:00 30.6 6 Nordeste 14 Nordeste 0 -- -- 38
2018-07-26 11:00:00 27.7 5 Nordeste 12 Norte 0 -- -- 53
2018-07-26 10:00:00 23.3 2 Norte 7 Oeste 0 -- -- 73
2018-07-26 09:00:00 19.6 0 Calma 6 Sur 0 -- -- 90
2018-07-26 08:00:00 19.3 3 Sudoeste 8 Sudoeste 0 -- -- 90
2018-07-26 07:00:00 19.4 3 Sudeste 7 Este 0 -- -- 90
2018-07-26 06:00:00 19.9 3 Sudeste 8 Este 0 -- -- 89
2018-07-26 05:00:00 20 3 Este 7 Este 0 -- -- 89
2018-07-26 04:00:00 20.4 4 Nordeste 9 Nordeste 0 -- -- 89
2018-07-26 03:00:00 20 0 Calma 9 Sudeste 0 -- -- 91
2018-07-26 02:00:00 19.4 0 Calma 5 Sur 0 -- -- 86
2018-07-26 01:00:00 20.8 3 Sudeste 10 Sudeste 0 -- -- 85
2018-07-26 00:00:00 21.5 3 Sudeste 13 Este 0 -- -- 79
2018-07-25 23:00:00 23 2 Sudeste 14 Este 0 -- -- 69
2018-07-25 22:00:00 24.6 4 Este 17 Este 0 -- -- 65
2018-07-25 21:00:00 26.7 8 Este 24 Este 0 -- -- 61
2018-07-25 20:00:00 29.3 8 Este 26 Este 0 -- -- 54
2018-07-25 19:00:00 31.3 10 Este 27 Sudeste 0 -- -- 48
2018-07-25 18:00:00 32 9 Este 31 Este 0 -- -- 43
2018-07-25 17:00:00 34.3 7 Sudeste 26 Este 0 -- -- 37
2018-07-25 16:00:00 34 9 Sudeste 25 Sur 0 -- -- 35
2018-07-25 15:00:00 33.7 8 Este 27 Este 0 -- -- 37
2018-07-25 14:00:00 32.8 8 Este 22 Nordeste 0 -- -- 37
2018-07-25 13:00:00 31.1 7 Este 19 Este 0 -- -- 40
2018-07-25 12:00:00 29.7 8 Este 20 Nordeste 0 -- -- 46
2018-07-25 11:00:00 27.5 6 Este 13 Nordeste 0 -- -- 57
2018-07-25 10:00:00 23.8 4 Este 13 Nordeste 0 -- -- 70
2018-07-25 09:00:00 20.2 4 Nordeste 10 Este 0 -- -- 87
2018-07-25 08:00:00 17.4 0 Calma 4 Oeste 0 -- -- 93
2018-07-25 07:00:00 16 2 Sudoeste 4 Sudoeste 0 -- -- 90
2018-07-25 06:00:00 16.3 0 Calma 4 Sur 0 -- -- 87
2018-07-25 05:00:00 17.1 0 Calma 4 Sudoeste 0 -- -- 84
2018-07-25 04:00:00 19.2 0 Calma 11 Este 0 -- -- 82
2018-07-25 03:00:00 20.2 5 Sudeste 13 Sudeste 0 -- -- 88
2018-07-25 02:00:00 19.6 0 Calma 3 Sudoeste 0 -- -- 59
2018-07-25 01:00:00 21.3 0 Calma 11 Sur 0 -- -- 56
2018-07-25 00:00:00 22.5 4 Sudoeste 9 Sudoeste 0 -- -- 53
2018-07-24 23:00:00 24.4 0 Calma 14 Sudeste 0 -- -- 48
2018-07-24 22:00:00 27.5 4 Sudeste 15 Sur 0 -- -- 42
2018-07-24 21:00:00 30.2 9 Sur 21 Sur 0 -- -- 36
2018-07-24 20:00:00 32.4 9 Sur 26 Sur 0 -- -- 31
2018-07-24 19:00:00 34.7 4 Este 20 Norte 0 -- -- 21
2018-07-24 18:00:00 35.8 5 Noroeste 22 Oeste 0 -- -- 20
2018-07-24 17:00:00 36 8 Oeste 22 Oeste 0 -- -- 20
2018-07-24 16:00:00 35.6 9 Noroeste 25 Oeste 0 -- -- 20
2018-07-24 15:00:00 35.1 12 Oeste 27 Oeste 0 -- -- 21
2018-07-24 14:00:00 34 7 Oeste 28 Oeste 0 -- -- 23
2018-07-24 13:00:00 32.8 9 Oeste 21 Sudoeste 0 -- -- 24
2018-07-24 12:00:00 31.6 6 Noroeste 18 Oeste 0 -- -- 26
2018-07-24 11:00:00 29.4 5 Oeste 18 Noroeste 0 -- -- 31
2018-07-24 10:00:00 26.5 6 Oeste 17 Oeste 0 -- -- 39
2018-07-24 09:00:00 22.6 3 Nordeste 7 Nordeste 0 -- -- 56
2018-07-24 08:00:00 16.1 0 Calma 8 Sudoeste 0 -- -- 77
2018-07-24 07:00:00 14.9 0 Calma 5 Oeste 0 -- -- 79
2018-07-24 06:00:00 15.2 0 Calma 6 Sur 0 -- -- 76
2018-07-24 05:00:00 15.5 2 Sur 5 Sur 0 -- -- 75
2018-07-24 04:00:00 15.9 0 Calma 4 Oeste 0 -- -- 72
2018-07-24 03:00:00 16.6 0 Calma 4 Oeste 0 -- -- 69
2018-07-24 02:00:00 17.7 0 Calma 3 Sudoeste 0 -- -- 66
2018-07-24 01:00:00 19 0 Calma 5 Sur 0 -- -- 63
2018-07-24 00:00:00 20.7 4 Sur 8 Sudeste 0 -- -- 61
2018-07-23 23:00:00 22.1 0 Calma 8 Sudeste 0 -- -- 57
2018-07-23 22:00:00 24.7 3 Este 24 Sur 0 -- -- 49
2018-07-23 21:00:00 26.6 11 Sur 24 Sudeste 0 -- -- 44
2018-07-23 20:00:00 29 9 Sur 29 Sur 0 -- -- 38
2018-07-23 19:00:00 30.7 14 Sur 32 Sudeste 0 -- -- 35
2018-07-23 18:00:00 32.2 10 Sudeste 29 Sur 0 -- -- 35
2018-07-23 17:00:00 33.4 12 Sur 30 Sudoeste 0 -- -- 30
2018-07-23 16:00:00 33.3 11 Sur 24 Oeste 0 -- -- 29
2018-07-23 15:00:00 32.9 10 Sudoeste 26 Sur 0 -- -- 29
2018-07-23 14:00:00 31.7 10 Sudoeste 24 Sudoeste 0 -- -- 31
2018-07-23 13:00:00 30.7 9 Sur 24 Sudoeste 0 -- -- 35
2018-07-23 12:00:00 29 8 Sur 21 Sur 0 -- -- 40
2018-07-23 11:00:00 26.8 9 Sur 19 Sudoeste 0 -- -- 46
2018-07-23 10:00:00 24.2 8 Sudoeste 17 Oeste 0 -- -- 59
2018-07-23 09:00:00 21 3 Oeste 9 Sur 0 -- -- 78
2018-07-23 08:00:00 17.3 3 Sudoeste 9 Sudoeste 0 -- -- 90
2018-07-23 07:00:00 17.4 4 Sudoeste 7 Sur 0 -- -- 88
2018-07-23 06:00:00 19.3 3 Sur 8 Sudeste 0 -- -- 84
2018-07-23 05:00:00 20.3 0 Calma 10 Sudeste 0 -- -- 83
2018-07-23 04:00:00 20.1 3 Sudeste 11 Sudeste 0 -- -- 85
2018-07-23 03:00:00 20.5 4 Sudeste 14 Este 0 -- -- 84
2018-07-23 02:00:00 20.8 4 Sudeste 12 Sudeste 0 -- -- 83
2018-07-23 01:00:00 20.5 4 Sudeste 11 Sudeste 0 -- -- 85
2018-07-23 00:00:00 20.4 5 Este 12 Nordeste 0 -- -- 84
2018-07-22 23:00:00 20.8 3 Este 10 Este 0 -- -- 81
2018-07-22 22:00:00 21.7 4 Este 13 Sudeste 0 -- -- 76
2018-07-22 21:00:00 23.1 7 Sudeste 16 Sudeste 0 -- -- 72
2018-07-22 20:00:00 24.2 5 Este 24 Este 0 -- -- 67
2018-07-22 19:00:00 25 12 Este 30 Este 0 -- -- 62
2018-07-22 18:00:00 26.9 13 Este 31 Sudeste 0 -- -- 55
2018-07-22 17:00:00 28.4 12 Este 31 Sudeste 0 -- -- 50
2018-07-22 16:00:00 28.6 10 Este 26 Nordeste 0 -- -- 50
2018-07-22 15:00:00 27.5 11 Este 25 Nordeste 0 -- -- 53
2018-07-22 14:00:00 26.8 10 Este 26 Este 0 -- -- 56
2018-07-22 13:00:00 25.7 10 Este 23 Este 0 -- -- 59
2018-07-22 12:00:00 25.6 9 Este 33 Sudeste 0 -- -- 58
2018-07-22 11:00:00 24 12 Este 27 Este 0 -- -- 64
2018-07-22 10:00:00 23.1 10 Este 26 Este 0 -- -- 70
2018-07-22 09:00:00 21 6 Este 18 Este 0 -- -- 83
2018-07-22 08:00:00 18.8 2 Este 6 Sudeste 0 -- -- 94
2018-07-22 07:00:00 18.4 2 Este 8 Sudeste 0 -- -- 93
2018-07-22 06:00:00 18.6 0 Calma 8 Este 0 -- -- 93
2018-07-22 05:00:00 18.8 3 Sudeste 8 Sudeste 0 -- -- 91
2018-07-22 04:00:00 19.1 2 Este 6 Sudeste 0 -- -- 91
2018-07-22 03:00:00 19.2 0 Calma 11 Este 0 -- -- 88
2018-07-22 02:00:00 20 4 Este 13 Sudeste 0 -- -- 86
2018-07-22 01:00:00 20.8 4 Este 16 Este 0 -- -- 83
2018-07-22 00:00:00 20.9 4 Este 15 Sudeste 0 -- -- 83
2018-07-21 23:00:00 21.6 5 Este 16 Este 0 -- -- 80
2018-07-21 22:00:00 23 5 Este 26 Sudeste 0 -- -- 74
2018-07-21 21:00:00 24.3 9 Sudeste 25 Sudeste 0 -- -- 64
2018-07-21 20:00:00 25.9 9 Sudeste 31 Sudeste 0 -- -- 61
2018-07-21 19:00:00 28.4 12 Este 29 Sudeste 0 -- -- 54
2018-07-21 18:00:00 32.1 8 Sudeste 24 Sudeste 0 -- -- 39
2018-07-21 17:00:00 32.9 8 Nordeste 22 Noroeste 0 -- -- 23
2018-07-21 16:00:00 33.1 9 Oeste 28 Oeste 0 -- -- 23
2018-07-21 15:00:00 32.2 8 Oeste 24 Oeste 0 -- -- 24
2018-07-21 14:00:00 31.4 9 Oeste 23 Oeste 0 -- -- 24
2018-07-21 13:00:00 30.3 9 Oeste 21 Oeste 0 -- -- 30
2018-07-21 12:00:00 28.8 5 Este 15 Nordeste 0 -- -- 41
2018-07-21 11:00:00 26.2 5 Este 14 Este 0 -- -- 48
2018-07-21 10:00:00 23.5 3 Este 11 Nordeste 0 -- -- 62
2018-07-21 09:00:00 20.7 2 Este 5 Sudeste 0 -- -- 72
2018-07-21 08:00:00 16.5 2 Sudoeste 8 Sudoeste 0 -- -- 91
2018-07-21 07:00:00 15.7 3 Sur 5 Sudoeste 0 -- -- 88
2018-07-21 06:00:00 16.8 0 Calma 4 Sur 0 -- -- 87
2018-07-21 05:00:00 18.1 0 Calma 7 Sudeste 0 -- -- 85
2018-07-21 04:00:00 19.1 0 Calma 12 Sudeste 0 -- -- 85
2018-07-21 03:00:00 20.1 5 Este 17 Sudeste 0 -- -- 83
2018-07-21 02:00:00 22.3 7 Oeste 18 Sudoeste 0 -- -- 32
2018-07-21 01:00:00 19.9 6 Oeste 12 Oeste 0 -- -- 37
2018-07-21 00:00:00 20.8 3 Sudoeste 6 Oeste 0 -- -- 38
2018-07-20 23:00:00 23.6 3 Sur 9 Sudeste 0 -- -- 47
2018-07-20 22:00:00 26.5 3 Nordeste 15 Norte 0 -- -- 48
2018-07-20 21:00:00 31 6 Noroeste 26 Noroeste 0 -- -- 19
2018-07-20 20:00:00 33.5 9 Noroeste 30 Oeste 0 -- -- 13
2018-07-20 19:00:00 34.4 7 Noroeste 26 Noroeste 0 -- -- 14
2018-07-20 18:00:00 35.7 12 Oeste 28 Oeste 0 -- -- 16
2018-07-20 17:00:00 35.9 12 Oeste 24 Sudoeste 0 -- -- 16
2018-07-20 16:00:00 35.6 10 Noroeste 24 Oeste 0 -- -- 16
2018-07-20 15:00:00 34.8 11 Oeste 28 Oeste 0 -- -- 15
2018-07-20 14:00:00 34.2 6 Oeste 24 Oeste 0 -- -- 15
2018-07-20 13:00:00 33 6 Noroeste 21 Oeste 0 -- -- 17
2018-07-20 12:00:00 31.2 5 Norte 18 Sudoeste 0 -- -- 21
2018-07-20 11:00:00 28.2 3 Oeste 12 Noroeste 0 -- -- 23
2018-07-20 10:00:00 26.2 5 Oeste 10 Oeste 0 -- -- 25
2018-07-20 09:00:00 22.2 3 Oeste 10 Oeste 0 -- -- 34
2018-07-20 08:00:00 17.9 4 Sudoeste 12 Sudoeste 0 -- -- 52
2018-07-20 07:00:00 15.5 0 Calma 6 Este 0 -- -- 80
2018-07-20 06:00:00 15.3 0 Calma 4 Sudoeste 0 -- -- 84
2018-07-20 05:00:00 16.1 0 Calma 5 Sur 0 -- -- 80
2018-07-20 04:00:00 17.6 2 Sur 6 Sudoeste 0 -- -- 74
2018-07-20 03:00:00 18.2 2 Sur 6 Sudoeste 0 -- -- 73
2018-07-20 02:00:00 18.8 0 Calma 3 Sudoeste 0 -- -- 72
2018-07-20 01:00:00 20.1 0 Calma 5 Sur 0 -- -- 64
2018-07-20 00:00:00 21.4 0 Calma 5 Sudoeste 0 -- -- 58